Brokaw, WI (54417)

3:43 PM CDT on May 06, 2015 (GMT -0500)
NorthWest Wausau, near NTC | | Change Station
CLOSE
Current Station
Personal Weather Station
Location: Wausau, WI
Elevation: 1230 ft
Nearby Weather Stations

Elev 1230 ft 44.98 °N, 89.65 °W | Updated 13 seconds ago

Mostly Cloudy
Mostly Cloudy
69.6 °F
Feels Like 69.6 °F
N
2.0
Wind Variable Wind from ENE
Gusts 4.9 mph

Today
High -- | Low -- °F
--% Chance of Precip.
Yesterday
High -- | Low -- °F
Precip. -- in
5:41 AM 8:10 PM
Waning Gibbous, 92% visible
Pressure 30.10 in
Visibility 10.0 miles
Clouds Few 2700 ft
Mostly Cloudy 12000 ft
Dew Point 59 °F
Humidity 70%
Rainfall 0.58 in
Snow Depth Not available.
UV 4.0 out of 12
Pollen 10.20 out of 12
Air Quality Not available.
Flu Activity Local Activity
METAR KAUW 061954Z AUTO 13008KT 10SM FEW027 BKN120 20/13 A3009 RMK AO2 SLP193 T02000133

More Conditions Fewer Conditions

Pressure 30.10 in
Visibility 10.0 miles
Clouds Few 2700 ft
Mostly Cloudy 12000 ft
Dew Point 59 °F
Humidity 70%
Rainfall 0.58 in
Snow Depth Not available.
UV 4.0 out of 12
Pollen 10.20 out of 12
Air Quality Not available.
Flu Activity Local Activity
METAR KAUW 061954Z AUTO 13008KT 10SM FEW027 BKN120 20/13 A3009 RMK AO2 SLP193 T02000133

More Conditions Fewer Conditions

10-Day Weather Forecast

Almanac

Astronomy

May. 06, 2015 Rise Set
Actual Time
Civil Twilight
Nautical Twilight
Astronomical Twilight
Moon
Length of Visible Light
Length of Day
Tomorrow will be .
, % of the Moon is Illuminated

Today's Extremes

State Highs State Lows

Community

WunderPhotos

Upload Photos

1,819,012 photos uploaded!

WunderBlogs® & News

Nearby

Air Quality

  Air Quality AQ Index Pollutant
Not available.

Snow Depth

Station Depth Elevation

Earthquake Activity

City Distance Mag. Time & Date
Minimum magnitude displayed is 2.5.

Coastal Water Temperatures

Place Temperature

Stations

Nearby Weather Stations

Station Location Temp. Windchill Dew Point Humidity Wind Precip. Elev Updated Type